Voidomatis — A8FX2 — position and weather

sailwx.info

Track history (hours):
 
Tides and Currents Weather Stations Pressure Air Temp Water Temp Dewpoint Dewpoint Depression Visibility Wind Speed Wind Dir Waves Ship Positions

Voidomatis

Last reported at 2017-Feb-19 07:30 UTC. Time now 2017-Feb-27 16:04 UTC.
Position S 24°15' W 046°16'.
Warning: this ship's position is 8 days out of date.

Length 214 m; draft 11.1 m.

Type: Tanker. MMSI: 636012508.

Date/timePositionNaut miles runAvg speedWind from/ knotsBaromVisibWave heightAir tempDewpointWater temp
2017-Feb-19 07:30S 24°15' W 046°16'1111.5
2017-Feb-19 06:33S 24°06' W 046°22'  
2017-Feb-16 01:33S 23°58' W 046°18'6 6.5
2017-Feb-16 00:33S 24°03' W 046°21'8 8.2
2017-Feb-15 23:33S 24°12' W 046°21'3 2.8
2017-Feb-15 22:32S 24°14' W 046°19'0 0.0
2017-Feb-15 21:32S 24°14' W 046°19'0 0.0
2017-Feb-15 20:32S 24°14' W 046°19'0 0.0
2017-Feb-15 19:14S 24°14' W 046°19'0 0.0
2017-Feb-15 18:26S 24°14' W 046°19'0 0.0
2017-Feb-15 17:26S 24°14' W 046°19'0 0.0
2017-Feb-15 16:32S 24°14' W 046°19'0 0.0
2017-Feb-15 15:20S 24°14' W 046°19'0 0.0
2017-Feb-15 14:32S 24°14' W 046°19'0 0.1
2017-Feb-15 13:32S 24°14' W 046°19'0 0.1
2017-Feb-15 12:32S 24°14' W 046°19'0 0.0
2017-Feb-15 11:32S 24°14' W 046°19'1 1.1
2017-Feb-15 10:33S 24°15' W 046°19'1110.6
2017-Feb-15 09:33S 24°25' W 046°16'1413.9
2017-Feb-15 08:34S 24°38' W 046°12'1514.8
2017-Feb-15 07:33S 24°53' W 046°07'3515.3
2017-Feb-15 05:15S 25°26' W 045°55'6015.6
2017-Feb-15 01:24S 26°23' W 045°35'  
2017-Feb-12 00:33S 34°46' W 057°34'1212.3
2017-Feb-11 23:33S 34°45' W 057°49'8 8.2
2017-Feb-11 22:33S 34°41' W 057°58'1111.3
2017-Feb-11 21:33S 34°30' W 057°57'1110.6
2017-Feb-11 20:33S 34°20' W 058°01'  
Track history (hours):
 
Tides and Currents Weather Stations Pressure Air Temp Water Temp Dewpoint Dewpoint Depression Visibility Wind Speed Wind Dir Waves Ship Positions

Voidomatis

Last reported at 2017-Feb-19 07:30 UTC. Time now 2017-Feb-27 16:04 UTC.
Position S 24°15' W 046°16'.
Warning: this ship's position is 8 days out of date.

Length 214 m; draft 11.1 m.

Type: Tanker. MMSI: 636012508.

Date/timePositionNaut miles runAvg speedWind from/ knotsBaromVisibWave heightAir tempDewpointWater temp
2017-Feb-19 07:30S 24°15' W 046°16'1111.5
2017-Feb-19 06:33S 24°06' W 046°22'  
2017-Feb-16 01:33S 23°58' W 046°18'6 6.5
2017-Feb-16 00:33S 24°03' W 046°21'8 8.2
2017-Feb-15 23:33S 24°12' W 046°21'3 2.8
2017-Feb-15 22:32S 24°14' W 046°19'0 0.0
2017-Feb-15 21:32S 24°14' W 046°19'0 0.0
2017-Feb-15 20:32S 24°14' W 046°19'0 0.0
2017-Feb-15 19:14S 24°14' W 046°19'0 0.0
2017-Feb-15 18:26S 24°14' W 046°19'0 0.0
2017-Feb-15 17:26S 24°14' W 046°19'0 0.0
2017-Feb-15 16:32S 24°14' W 046°19'0 0.0
2017-Feb-15 15:20S 24°14' W 046°19'0 0.0
2017-Feb-15 14:32S 24°14' W 046°19'0 0.1
2017-Feb-15 13:32S 24°14' W 046°19'0 0.1
2017-Feb-15 12:32S 24°14' W 046°19'0 0.0
2017-Feb-15 11:32S 24°14' W 046°19'1 1.1
2017-Feb-15 10:33S 24°15' W 046°19'1110.6
2017-Feb-15 09:33S 24°25' W 046°16'1413.9
2017-Feb-15 08:34S 24°38' W 046°12'1514.8
2017-Feb-15 07:33S 24°53' W 046°07'3515.3
2017-Feb-15 05:15S 25°26' W 045°55'6015.6
2017-Feb-15 01:24S 26°23' W 045°35'  
2017-Feb-12 00:33S 34°46' W 057°34'1212.3
2017-Feb-11 23:33S 34°45' W 057°49'8 8.2
2017-Feb-11 22:33S 34°41' W 057°58'1111.3
2017-Feb-11 21:33S 34°30' W 057°57'1110.6
2017-Feb-11 20:33S 34°20' W 058°01'  

Dump ship's entire track history